Time;durP1;ratioP1;P1;durP2;ratioP2;P2;SDS_P1;SDS_P2;PMS_P1;PMS_P2;Temp;Humidity;BMP_temperature;BMP_pressure;BME280_temperature;BME280_humidity;BME280_pressure;Samples;Min_cycle;Max_cycle;Signal;HPM_P1;HPM_P2
2022/03/10 00:01:13;;;;;;;23.73;14.27;;;8.10;99.90;;;;;;4960312;28;20289;-55
2022/03/10 00:03:40;;;;;;;24.90;13.13;;;7.90;99.90;;;;;;4959595;28;20281;-57
2022/03/10 00:06:07;;;;;;;22.07;13.27;;;7.80;99.90;;;;;;4960214;28;20228;-54
2022/03/10 00:08:33;;;;;;;24.10;14.40;;;7.80;99.90;;;;;;4961505;28;20236;-55
2022/03/10 00:11:00;;;;;;;27.20;14.47;;;7.70;99.90;;;;;;4962059;28;20335;-54
2022/03/10 00:13:30;;;;;;;22.60;14.33;;;7.70;99.90;;;;;;4960733;28;20197;-57
2022/03/10 00:15:57;;;;;;;27.97;14.83;;;7.60;99.90;;;;;;4958370;28;20234;-55
2022/03/10 00:18:25;;;;;;;24.17;14.63;;;7.50;99.90;;;;;;4959698;28;20276;-55
2022/03/10 00:20:52;;;;;;;29.20;15.00;;;7.50;99.90;;;;;;4960040;28;20240;-55
2022/03/10 00:23:19;;;;;;;26.67;14.97;;;7.40;99.90;;;;;;4961403;28;20235;-55
2022/03/10 00:25:45;;;;;;;22.07;14.13;;;7.50;99.90;;;;;;4959606;28;20290;-55
2022/03/10 00:28:12;;;;;;;21.80;13.63;;;7.40;99.90;;;;;;4959159;28;20260;-55
2022/03/10 00:30:39;;;;;;;24.87;14.43;;;7.40;99.90;;;;;;4959363;28;20294;-55
2022/03/10 00:33:06;;;;;;;23.27;13.77;;;7.30;99.90;;;;;;4957871;28;20337;-57
2022/03/10 00:35:32;;;;;;;23.60;14.00;;;7.30;99.90;;;;;;4960987;28;20243;-55
2022/03/10 00:38:00;;;;;;;22.87;13.80;;;7.30;99.90;;;;;;4958942;28;20305;-55
2022/03/10 00:40:28;;;;;;;25.23;14.20;;;7.20;99.90;;;;;;4955989;28;20637;-55
2022/03/10 00:42:55;;;;;;;25.17;14.43;;;7.20;99.90;;;;;;4956906;28;20239;-56
2022/03/10 00:45:22;;;;;;;25.73;15.27;;;7.20;99.90;;;;;;4958612;28;22220;-55
2022/03/10 00:47:51;;;;;;;24.17;14.37;;;7.10;99.90;;;;;;4957832;28;20214;-54
2022/03/10 00:50:18;;;;;;;27.00;15.13;;;7.10;99.90;;;;;;4955134;28;20280;-54
2022/03/10 00:52:46;;;;;;;24.77;15.17;;;7.10;99.90;;;;;;4957790;28;20300;-55
2022/03/10 00:55:18;;;;;;;27.10;15.03;;;7.00;99.90;;;;;;4959678;28;20306;-57
2022/03/10 00:57:45;;;;;;;26.67;14.17;;;7.00;99.90;;;;;;4957303;28;20311;-55
2022/03/10 01:00:13;;;;;;;26.57;15.97;;;6.90;99.90;;;;;;4956563;28;20204;-56
2022/03/10 01:02:40;;;;;;;23.77;14.73;;;6.80;99.90;;;;;;4955261;28;20294;-55
2022/03/10 01:05:09;;;;;;;21.07;14.20;;;6.80;99.90;;;;;;4958876;28;20226;-56
2022/03/10 01:07:36;;;;;;;26.40;14.73;;;6.80;99.90;;;;;;4955743;28;20603;-55
2022/03/10 01:10:05;;;;;;;25.43;15.57;;;6.70;99.90;;;;;;4956096;28;20237;-56
2022/03/10 01:12:33;;;;;;;21.90;13.60;;;6.60;99.90;;;;;;4955593;28;20273;-57
2022/03/10 01:14:59;;;;;;;23.40;14.00;;;6.60;99.90;;;;;;4956047;28;20304;-54
2022/03/10 01:17:26;;;;;;;24.60;15.07;;;6.50;99.90;;;;;;4953962;28;20594;-55
2022/03/10 01:19:53;;;;;;;26.97;14.73;;;6.50;99.90;;;;;;4955260;28;20201;-56
2022/03/10 01:22:20;;;;;;;25.87;13.97;;;6.40;99.90;;;;;;4957244;28;20201;-55
2022/03/10 01:24:47;;;;;;;24.40;14.50;;;6.30;99.90;;;;;;4955573;28;20303;-54
2022/03/10 01:27:15;;;;;;;21.97;14.03;;;6.30;99.90;;;;;;4955464;28;20207;-55
2022/03/10 01:29:42;;;;;;;23.23;13.40;;;6.30;99.90;;;;;;4954790;28;20250;-57
2022/03/10 01:32:09;;;;;;;27.63;14.83;;;6.30;99.90;;;;;;4953824;28;20308;-55
2022/03/10 01:34:36;;;;;;;25.67;13.97;;;6.30;99.90;;;;;;4954904;28;20335;-55
2022/03/10 01:37:02;;;;;;;27.03;15.50;;;6.40;99.90;;;;;;4955427;28;20316;-55
2022/03/10 01:39:33;;;;;;;23.87;13.77;;;6.30;99.90;;;;;;4953310;28;20568;-55
2022/03/10 01:42:00;;;;;;;24.27;14.13;;;6.30;99.90;;;;;;4954162;28;20267;-57
2022/03/10 01:44:27;;;;;;;27.90;14.70;;;6.20;99.90;;;;;;4954198;28;20216;-54
2022/03/10 01:46:54;;;;;;;24.57;14.40;;;6.20;99.90;;;;;;4955302;28;20296;-55
2022/03/10 01:49:21;;;;;;;25.07;15.20;;;6.30;99.90;;;;;;4954937;28;20229;-54
2022/03/10 01:51:51;;;;;;;26.90;15.03;;;6.30;99.90;;;;;;4959347;28;20288;-55
2022/03/10 01:54:18;;;;;;;20.97;13.43;;;6.30;99.90;;;;;;4958980;28;20679;-57
2022/03/10 01:56:46;;;;;;;28.03;14.23;;;6.30;99.90;;;;;;4959687;28;20683;-55
2022/03/10 01:59:13;;;;;;;24.33;14.47;;;6.20;99.90;;;;;;4956929;28;20213;-57
2022/03/10 02:01:40;;;;;;;21.20;14.07;;;6.30;99.90;;;;;;4956961;28;20350;-55
2022/03/10 02:04:07;;;;;;;26.77;14.00;;;6.30;99.90;;;;;;4959767;28;20212;-55
2022/03/10 02:06:35;;;;;;;20.23;13.97;;;6.20;99.90;;;;;;4959040;28;20343;-55
2022/03/10 02:11:49;;;;;;;22.90;14.20;;;6.20;99.90;;;;;;4957665;28;20203;-54
2022/03/10 02:17:21;;;;;;;23.60;14.07;;;6.00;99.90;;;;;;4956050;28;20412;-56
2022/03/10 02:19:56;;;;;;;29.30;15.43;;;6.10;99.90;;;;;;4958414;28;20548;-55
2022/03/10 02:22:25;;;;;;;23.00;13.47;;;6.10;99.90;;;;;;4957571;28;20219;-56
2022/03/10 02:24:53;;;;;;;27.20;14.47;;;6.10;99.90;;;;;;4957701;28;20311;-55
2022/03/10 02:27:25;;;;;;;27.37;14.77;;;6.00;99.90;;;;;;4958098;28;20236;-55
2022/03/10 02:29:55;;;;;;;23.60;14.53;;;6.10;99.90;;;;;;4957766;28;20329;-55
2022/03/10 02:32:22;;;;;;;24.73;13.07;;;6.00;99.90;;;;;;4956580;28;20235;-57
2022/03/10 02:34:49;;;;;;;25.30;14.50;;;6.00;99.90;;;;;;4959806;28;20286;-57
2022/03/10 02:37:19;;;;;;;26.00;15.03;;;6.10;99.90;;;;;;4957077;28;20222;-55
2022/03/10 02:39:46;;;;;;;23.90;14.53;;;6.00;99.90;;;;;;4958303;28;20236;-55
2022/03/10 02:42:14;;;;;;;23.87;15.00;;;6.00;99.90;;;;;;4974948;28;20651;-55
2022/03/10 02:44:42;;;;;;;26.73;14.00;;;5.90;99.90;;;;;;4957202;28;20391;-56
2022/03/10 02:47:10;;;;;;;25.77;13.77;;;5.90;99.90;;;;;;4957726;28;20282;-55
2022/03/10 02:49:38;;;;;;;21.97;13.60;;;5.80;99.90;;;;;;4958250;28;20290;-55
2022/03/10 02:52:05;;;;;;;25.53;13.90;;;5.80;99.90;;;;;;4957562;28;21956;-55
2022/03/10 02:54:42;;;;;;;22.53;13.47;;;5.80;99.90;;;;;;4959405;28;20207;-54
2022/03/10 02:57:09;;;;;;;23.07;13.90;;;5.70;99.90;;;;;;4959846;28;21771;-55
2022/03/10 02:59:35;;;;;;;23.43;14.10;;;5.60;99.90;;;;;;4959176;28;20245;-57
2022/03/10 03:02:04;;;;;;;24.57;13.47;;;5.60;99.90;;;;;;4956577;28;20258;-54
2022/03/10 03:04:31;;;;;;;23.03;14.10;;;5.60;99.90;;;;;;4960353;28;20294;-55
2022/03/10 03:06:58;;;;;;;24.30;14.13;;;5.70;99.90;;;;;;4956501;28;20250;-54
2022/03/10 03:09:25;;;;;;;25.20;13.53;;;5.70;99.90;;;;;;4958747;28;20678;-55
2022/03/10 03:11:52;;;;;;;28.17;15.00;;;5.70;99.90;;;;;;4956187;28;20199;-55
2022/03/10 03:14:22;;;;;;;28.93;15.07;;;5.70;99.90;;;;;;4958464;28;20334;-57
2022/03/10 03:16:56;;;;;;;22.60;14.00;;;5.60;99.90;;;;;;4955767;28;20209;-55
2022/03/10 03:19:24;;;;;;;22.63;13.87;;;5.60;99.90;;;;;;4955372;28;20221;-55
2022/03/10 03:21:51;;;;;;;21.97;13.17;;;5.60;99.90;;;;;;4959248;28;20553;-55
2022/03/10 03:24:18;;;;;;;25.00;13.87;;;5.60;99.90;;;;;;4956648;28;20205;-54
2022/03/10 03:26:47;;;;;;;23.20;13.37;;;5.60;99.90;;;;;;4956763;28;20210;-54
2022/03/10 03:29:15;;;;;;;26.60;13.60;;;5.50;99.90;;;;;;4958249;28;20306;-55
2022/03/10 03:31:42;;;;;;;23.83;14.27;;;5.40;99.90;;;;;;4955594;28;20662;-55
2022/03/10 03:34:12;;;;;;;23.60;12.87;;;5.40;99.90;;;;;;4955604;28;20712;-56
2022/03/10 03:36:41;;;;;;;26.87;15.30;;;5.20;99.90;;;;;;4957662;28;20709;-55
2022/03/10 03:39:08;;;;;;;24.13;13.73;;;5.10;99.90;;;;;;4956361;28;20612;-56
2022/03/10 03:41:35;;;;;;;21.67;14.20;;;5.10;99.90;;;;;;4956581;28;20351;-55
2022/03/10 03:44:03;;;;;;;24.23;13.83;;;5.10;99.90;;;;;;4957533;28;20278;-54
2022/03/10 03:46:30;;;;;;;24.03;14.83;;;5.20;99.90;;;;;;4955618;28;20707;-55
2022/03/10 03:48:57;;;;;;;21.30;14.63;;;5.30;99.90;;;;;;4958120;28;20496;-54
2022/03/10 03:51:24;;;;;;;27.67;14.50;;;5.20;99.90;;;;;;4955128;28;20234;-56
2022/03/10 03:53:50;;;;;;;23.47;13.77;;;5.20;99.90;;;;;;4956634;28;20288;-55
2022/03/10 03:56:17;;;;;;;25.53;14.53;;;5.00;99.90;;;;;;4956347;28;20234;-56
2022/03/10 03:58:45;;;;;;;23.03;13.57;;;5.00;99.90;;;;;;4957649;28;20330;-56
2022/03/10 04:01:12;;;;;;;23.27;14.00;;;5.00;99.90;;;;;;4955741;28;20613;-56
2022/03/10 04:03:39;;;;;;;24.93;13.80;;;5.00;99.90;;;;;;4955766;28;20219;-56
2022/03/10 04:06:06;;;;;;;24.53;14.03;;;5.10;99.90;;;;;;4956863;28;20319;-56
2022/03/10 04:08:33;;;;;;;25.20;13.67;;;5.00;99.90;;;;;;4958195;28;20226;-54
2022/03/10 04:11:01;;;;;;;29.57;13.77;;;5.00;99.90;;;;;;4952895;28;20210;-55
2022/03/10 04:13:27;;;;;;;23.87;14.23;;;5.10;99.90;;;;;;4956821;28;20235;-57
2022/03/10 04:15:54;;;;;;;25.10;14.80;;;5.10;99.90;;;;;;4957011;28;20282;-55
2022/03/10 04:18:21;;;;;;;23.30;14.10;;;5.20;99.90;;;;;;4954681;28;20322;-56
2022/03/10 04:20:48;;;;;;;22.17;14.17;;;5.20;99.90;;;;;;4955830;28;20295;-56
2022/03/10 04:23:18;;;;;;;26.60;13.43;;;5.10;99.90;;;;;;4957917;28;20209;-55
2022/03/10 04:25:44;;;;;;;26.17;14.70;;;4.90;99.90;;;;;;4955639;28;20299;-57
2022/03/10 04:28:11;;;;;;;24.90;14.30;;;4.90;99.90;;;;;;4956460;28;20660;-56
2022/03/10 04:30:44;;;;;;;24.40;13.53;;;4.80;99.90;;;;;;4954680;28;20214;-55
2022/03/10 04:33:11;;;;;;;23.27;14.70;;;4.80;99.90;;;;;;4955181;28;20242;-56
2022/03/10 04:35:38;;;;;;;23.70;13.23;;;4.80;99.90;;;;;;4957253;28;20342;-55
2022/03/10 04:38:05;;;;;;;23.90;12.83;;;4.70;99.90;;;;;;4957155;28;20334;-55
2022/03/10 04:40:32;;;;;;;24.20;13.40;;;4.80;99.90;;;;;;4953369;28;20230;-56
2022/03/10 04:42:59;;;;;;;23.67;13.20;;;4.90;99.90;;;;;;4957048;28;20560;-59
2022/03/10 04:45:26;;;;;;;24.50;14.40;;;5.00;99.90;;;;;;4956307;28;20623;-56
2022/03/10 04:47:53;;;;;;;28.50;14.37;;;4.90;99.90;;;;;;4956064;28;20736;-55
2022/03/10 04:50:20;;;;;;;23.03;13.17;;;4.90;99.90;;;;;;4955745;28;20329;-55
2022/03/10 04:52:47;;;;;;;23.60;13.57;;;4.80;99.90;;;;;;4957547;28;20294;-54
2022/03/10 04:55:14;;;;;;;27.90;13.77;;;4.80;99.90;;;;;;4957294;28;20574;-57
2022/03/10 04:57:41;;;;;;;30.53;13.90;;;4.80;99.90;;;;;;4953137;28;20297;-56
2022/03/10 05:00:11;;;;;;;22.97;13.77;;;4.70;99.90;;;;;;4955660;28;21017;-55
2022/03/10 05:02:39;;;;;;;23.57;13.70;;;4.60;99.90;;;;;;4957243;28;20199;-56
2022/03/10 05:05:11;;;;;;;23.93;13.93;;;4.60;99.90;;;;;;4961323;28;20199;-55
2022/03/10 05:07:37;;;;;;;23.50;14.00;;;4.40;99.90;;;;;;4959588;28;20707;-57
2022/03/10 05:10:05;;;;;;;21.90;14.10;;;4.50;99.90;;;;;;4960985;28;20650;-55
2022/03/10 05:12:32;;;;;;;24.40;13.80;;;4.50;99.90;;;;;;4962349;28;20206;-56
2022/03/10 05:14:59;;;;;;;25.67;14.83;;;4.50;99.90;;;;;;4958604;28;20641;-56
2022/03/10 05:17:26;;;;;;;22.67;13.50;;;4.50;99.90;;;;;;4956053;28;20691;-55
2022/03/10 05:19:53;;;;;;;24.13;14.43;;;4.50;99.90;;;;;;4958367;28;20660;-55
2022/03/10 05:22:19;;;;;;;23.63;13.13;;;4.40;99.90;;;;;;4957044;28;20231;-57
2022/03/10 05:24:46;;;;;;;20.37;12.10;;;4.40;99.90;;;;;;4958147;28;20309;-55
2022/03/10 05:27:13;;;;;;;23.70;13.57;;;4.40;99.90;;;;;;4962301;28;20198;-54
2022/03/10 05:29:40;;;;;;;22.20;12.63;;;4.30;99.90;;;;;;4962090;28;20782;-56
2022/03/10 05:32:11;;;;;;;22.53;12.73;;;4.40;99.90;;;;;;4962984;28;20217;-55
2022/03/10 05:34:38;;;;;;;27.90;13.63;;;4.40;99.90;;;;;;4963886;28;20341;-55
2022/03/10 05:37:05;;;;;;;23.60;13.67;;;4.40;99.90;;;;;;4963041;28;20207;-57
2022/03/10 05:39:32;;;;;;;23.97;13.10;;;4.30;99.90;;;;;;4963225;28;20253;-55
2022/03/10 05:41:59;;;;;;;23.17;13.27;;;4.30;99.90;;;;;;4962730;28;20231;-56
2022/03/10 05:44:26;;;;;;;23.23;13.13;;;4.20;99.90;;;;;;4963030;28;20291;-57
2022/03/10 05:46:53;;;;;;;24.83;14.30;;;4.20;99.90;;;;;;4962721;28;20262;-56
2022/03/10 05:49:20;;;;;;;21.07;12.40;;;4.20;99.90;;;;;;4961656;28;20627;-55
2022/03/10 05:51:47;;;;;;;22.60;12.87;;;4.20;99.90;;;;;;4963865;28;20831;-56
2022/03/10 05:54:13;;;;;;;22.57;13.33;;;4.20;99.90;;;;;;4961990;28;20658;-55
2022/03/10 05:56:40;;;;;;;23.43;14.00;;;4.10;99.90;;;;;;4962344;28;20233;-57
2022/03/10 05:59:07;;;;;;;23.20;13.77;;;4.10;99.90;;;;;;4975972;28;20251;-56
2022/03/10 06:01:34;;;;;;;27.37;14.50;;;4.00;99.90;;;;;;4957296;28;20213;-56
2022/03/10 06:04:01;;;;;;;21.20;12.37;;;3.90;99.90;;;;;;4962086;28;20323;-59
2022/03/10 06:06:33;;;;;;;23.07;13.20;;;3.90;99.90;;;;;;4963396;28;20297;-55
2022/03/10 06:09:00;;;;;;;23.00;13.23;;;3.90;99.90;;;;;;4964634;28;20646;-58
2022/03/10 06:11:27;;;;;;;23.57;13.20;;;3.80;99.90;;;;;;4963180;28;20259;-56
2022/03/10 06:13:54;;;;;;;23.73;13.30;;;3.90;99.90;;;;;;4963383;28;20329;-56
2022/03/10 06:16:21;;;;;;;23.23;13.00;;;3.90;99.90;;;;;;4960715;28;20301;-56
2022/03/10 06:18:51;;;;;;;25.23;13.87;;;3.90;99.90;;;;;;4957431;28;20214;-54
2022/03/10 06:21:18;;;;;;;21.87;11.97;;;3.90;99.90;;;;;;4955685;28;20292;-56
2022/03/10 06:23:44;;;;;;;27.27;13.50;;;4.00;99.90;;;;;;4960238;28;20258;-56
2022/03/10 06:26:12;;;;;;;25.37;13.00;;;4.00;99.90;;;;;;4957824;28;20369;-56
2022/03/10 06:28:38;;;;;;;32.97;13.57;;;4.00;99.90;;;;;;4958517;28;20632;-57
2022/03/10 06:31:06;;;;;;;21.63;12.07;;;4.10;99.90;;;;;;4958996;28;20371;-56
2022/03/10 06:33:35;;;;;;;24.17;13.97;;;4.10;99.90;;;;;;4958472;28;20294;-57
2022/03/10 06:36:03;;;;;;;24.13;13.30;;;4.10;99.90;;;;;;4958098;28;20290;-55
2022/03/10 06:38:29;;;;;;;22.90;13.17;;;4.10;99.90;;;;;;4958560;28;20240;-55
2022/03/10 06:40:56;;;;;;;25.33;13.23;;;4.10;99.90;;;;;;4959967;28;20255;-56
2022/03/10 06:43:23;;;;;;;23.80;13.30;;;4.30;99.90;;;;;;4960568;28;20206;-56
2022/03/10 06:45:50;;;;;;;21.10;12.33;;;4.40;99.90;;;;;;4958080;28;20209;-55
2022/03/10 06:48:17;;;;;;;25.00;13.10;;;4.40;99.90;;;;;;4957667;28;20203;-55
2022/03/10 06:50:44;;;;;;;22.87;13.17;;;4.50;99.90;;;;;;4959748;28;20341;-57
2022/03/10 06:53:11;;;;;;;23.33;13.03;;;4.60;99.90;;;;;;4959823;28;20225;-55
2022/03/10 06:55:38;;;;;;;24.53;12.83;;;4.70;99.90;;;;;;4958862;28;20625;-56
2022/03/10 06:58:05;;;;;;;22.97;12.87;;;4.90;99.90;;;;;;4957581;28;20319;-56
2022/03/10 07:00:32;;;;;;;23.67;13.23;;;5.00;99.90;;;;;;4952787;28;20301;-55
2022/03/10 07:02:59;;;;;;;24.00;13.70;;;5.10;99.90;;;;;;4959257;28;20206;-55
2022/03/10 07:05:26;;;;;;;24.80;13.37;;;5.10;99.90;;;;;;4960436;28;20231;-57
2022/03/10 07:07:53;;;;;;;25.93;13.77;;;5.10;99.90;;;;;;4960329;28;20204;-56
2022/03/10 07:10:22;;;;;;;25.53;12.80;;;5.20;99.90;;;;;;4961280;28;20199;-55
2022/03/10 07:12:49;;;;;;;23.70;12.93;;;5.30;99.90;;;;;;4960264;28;20237;-55
2022/03/10 07:15:16;;;;;;;25.87;14.40;;;5.50;99.90;;;;;;4961881;28;20223;-57
2022/03/10 07:17:43;;;;;;;19.30;12.73;;;5.60;99.90;;;;;;4958176;28;20298;-55
2022/03/10 07:20:10;;;;;;;24.30;13.00;;;5.60;99.90;;;;;;4958160;28;20261;-55
2022/03/10 07:22:37;;;;;;;24.27;13.70;;;5.70;99.90;;;;;;4958345;28;20321;-56
2022/03/10 07:25:04;;;;;;;34.83;13.33;;;5.80;99.90;;;;;;4955387;28;20647;-56
2022/03/10 07:27:31;;;;;;;23.53;13.00;;;5.80;99.90;;;;;;4957570;28;20285;-55
2022/03/10 07:29:58;;;;;;;23.93;14.00;;;5.80;99.90;;;;;;4959220;28;20203;-57
2022/03/10 07:32:26;;;;;;;20.47;13.07;;;6.10;99.90;;;;;;4956159;28;20337;-55
2022/03/10 07:34:52;;;;;;;22.83;13.17;;;6.30;99.90;;;;;;4954772;28;20737;-55
2022/03/10 07:37:19;;;;;;;24.87;11.97;;;6.40;99.90;;;;;;4957743;28;20653;-55
2022/03/10 07:39:46;;;;;;;23.40;13.13;;;6.50;99.90;;;;;;4958695;28;20250;-54
2022/03/10 07:42:15;;;;;;;23.80;13.63;;;6.50;99.90;;;;;;4958810;28;20287;-57
2022/03/10 07:44:42;;;;;;;27.43;14.37;;;6.80;99.90;;;;;;4959636;28;20236;-56
2022/03/10 07:47:10;;;;;;;21.33;12.13;;;6.80;99.90;;;;;;4958441;28;20254;-55
2022/03/10 07:49:37;;;;;;;26.67;13.87;;;6.90;99.90;;;;;;4957373;28;20294;-55
2022/03/10 07:52:04;;;;;;;20.40;12.63;;;6.90;99.90;;;;;;4958501;28;20295;-57
2022/03/10 07:54:31;;;;;;;27.40;14.40;;;6.60;99.90;;;;;;4957416;28;20251;-55
2022/03/10 07:56:58;;;;;;;26.20;14.73;;;7.20;99.90;;;;;;4957428;28;20265;-55
2022/03/10 07:59:25;;;;;;;28.47;13.57;;;7.40;99.90;;;;;;4956133;28;20222;-56
2022/03/10 08:01:52;;;;;;;28.07;14.30;;;7.40;99.90;;;;;;4951195;28;20501;-54
2022/03/10 08:04:19;;;;;;;23.13;14.73;;;7.50;99.90;;;;;;4955125;28;20211;-55
2022/03/10 08:06:46;;;;;;;30.70;14.83;;;7.80;99.90;;;;;;4955709;28;20805;-54
2022/03/10 08:09:13;;;;;;;26.83;15.10;;;8.00;99.90;;;;;;4952292;28;21751;-55
2022/03/10 08:11:40;;;;;;;26.73;14.23;;;8.10;99.90;;;;;;4956240;28;20238;-56
2022/03/10 08:14:08;;;;;;;25.37;14.20;;;8.00;99.90;;;;;;4956193;28;20556;-55
2022/03/10 08:16:35;;;;;;;23.77;14.27;;;8.30;99.90;;;;;;4952498;28;20207;-62
2022/03/10 08:19:02;;;;;;;26.23;14.33;;;8.50;99.90;;;;;;4968217;28;20228;-58
2022/03/10 08:21:28;;;;;;;22.53;14.57;;;8.70;99.90;;;;;;4955924;28;20244;-55
2022/03/10 08:23:55;;;;;;;27.57;15.80;;;8.80;99.90;;;;;;4956314;28;20296;-55
2022/03/10 08:26:22;;;;;;;28.93;14.70;;;9.10;99.90;;;;;;4955750;28;20324;-55
2022/03/10 08:28:51;;;;;;;21.57;12.43;;;9.20;99.90;;;;;;4954996;28;20230;-57
2022/03/10 08:31:19;;;;;;;26.83;14.83;;;9.50;99.90;;;;;;4955593;28;20220;-55
2022/03/10 08:33:46;;;;;;;29.00;15.13;;;9.50;99.90;;;;;;4953498;28;20785;-55
2022/03/10 08:36:14;;;;;;;26.30;14.27;;;9.70;99.90;;;;;;4956711;28;20206;-56
2022/03/10 08:38:41;;;;;;;27.73;16.33;;;9.80;99.90;;;;;;4954255;28;20265;-55
2022/03/10 08:41:09;;;;;;;27.93;15.03;;;10.10;99.90;;;;;;4953482;28;20333;-55
2022/03/10 08:43:37;;;;;;;22.00;13.70;;;10.30;99.90;;;;;;4955654;28;20302;-54
2022/03/10 08:46:05;;;;;;;28.00;14.77;;;10.50;99.90;;;;;;4952867;28;20666;-56
2022/03/10 08:48:34;;;;;;;24.10;14.80;;;10.70;99.90;;;;;;4955025;28;20277;-55
2022/03/10 08:51:02;;;;;;;24.17;15.00;;;10.90;99.90;;;;;;4952159;28;20586;-56
2022/03/10 08:53:30;;;;;;;22.70;14.20;;;10.90;99.90;;;;;;4955026;28;20257;-55
2022/03/10 08:55:57;;;;;;;23.57;15.70;;;11.00;99.90;;;;;;4955327;28;20234;-55
2022/03/10 08:58:25;;;;;;;25.47;14.57;;;11.00;99.90;;;;;;4966626;28;20208;-55
2022/03/10 09:00:51;;;;;;;24.03;14.63;;;11.40;99.90;;;;;;4954284;28;20342;-55
2022/03/10 09:03:38;;;;;;;23.57;14.47;;;11.70;99.90;;;;;;4952687;28;20573;-57
2022/03/10 09:06:07;;;;;;;26.17;15.17;;;11.30;99.90;;;;;;4954643;28;20225;-54
2022/03/10 09:08:34;;;;;;;22.90;14.73;;;12.10;99.90;;;;;;4956317;28;20531;-54
2022/03/10 09:11:02;;;;;;;23.53;14.70;;;12.60;99.90;;;;;;4955105;28;20313;-54
2022/03/10 09:13:29;;;;;;;23.07;15.10;;;12.70;99.90;;;;;;4949881;28;20231;-55
2022/03/10 09:15:56;;;;;;;23.03;15.53;;;12.80;99.90;;;;;;4953895;28;20301;-55
2022/03/10 09:18:24;;;;;;;24.33;15.10;;;13.10;99.90;;;;;;4951871;28;20202;-54
2022/03/10 09:20:51;;;;;;;24.47;16.10;;;13.30;99.90;;;;;;4956194;28;20727;-56
2022/03/10 09:23:18;;;;;;;25.27;15.47;;;13.30;99.90;;;;;;4955132;28;20202;-54
2022/03/10 09:25:45;;;;;;;25.77;14.63;;;13.60;99.90;;;;;;4955232;28;20309;-54
2022/03/10 09:28:13;;;;;;;24.87;15.60;;;13.90;99.90;;;;;;4954710;28;20289;-54
2022/03/10 09:30:40;;;;;;;26.10;16.03;;;14.00;99.90;;;;;;4957318;28;20695;-54
2022/03/10 09:33:07;;;;;;;24.80;15.63;;;14.10;99.90;;;;;;4955147;28;20280;-54
2022/03/10 09:35:34;;;;;;;23.63;16.43;;;14.20;99.90;;;;;;4955906;28;20305;-54
2022/03/10 09:38:00;;;;;;;20.70;14.40;;;14.20;99.90;;;;;;4958099;28;20345;-54
2022/03/10 09:40:27;;;;;;;22.87;15.10;;;14.40;99.90;;;;;;4959734;28;20247;-53
2022/03/10 09:42:55;;;;;;;23.13;15.50;;;14.30;99.90;;;;;;4957607;28;20294;-54
2022/03/10 09:45:23;;;;;;;25.20;15.87;;;14.70;99.90;;;;;;4954090;28;20235;-55
2022/03/10 09:47:50;;;;;;;25.00;15.63;;;14.40;99.90;;;;;;4955506;28;20694;-54
2022/03/10 09:50:18;;;;;;;24.77;15.10;;;14.80;99.90;;;;;;4955083;28;20726;-54
2022/03/10 09:52:47;;;;;;;25.40;15.07;;;15.10;99.90;;;;;;4957290;28;20234;-54
2022/03/10 09:55:16;;;;;;;27.33;16.33;;;15.20;99.90;;;;;;4955649;28;20237;-54
2022/03/10 09:57:45;;;;;;;22.97;15.27;;;15.00;99.90;;;;;;4956240;28;20232;-54
2022/03/10 10:00:15;;;;;;;26.33;16.87;;;15.20;99.90;;;;;;4959085;28;20229;-54
2022/03/10 10:02:44;;;;;;;26.83;15.50;;;15.10;99.90;;;;;;4955691;28;20211;-53
2022/03/10 10:05:26;;;;;;;23.33;15.43;;;15.20;99.90;;;;;;4953629;28;20271;-53
2022/03/10 10:08:19;;;;;;;31.43;16.90;;;14.80;99.90;;;;;;4956166;28;20205;-54
2022/03/10 10:10:51;;;;;;;25.40;15.37;;;14.60;99.90;;;;;;4953637;28;20218;-54
2022/03/10 10:13:40;;;;;;;25.33;16.07;;;14.80;99.90;;;;;;4958926;28;20243;-55
2022/03/10 10:16:09;;;;;;;26.13;15.63;;;14.60;99.90;;;;;;4959475;28;20373;-54
2022/03/10 10:18:38;;;;;;;25.57;14.87;;;14.70;99.90;;;;;;4958759;28;20648;-54
2022/03/10 10:21:12;;;;;;;23.00;15.60;;;14.90;99.90;;;;;;4957611;28;20302;-54
2022/03/10 10:23:40;;;;;;;24.50;14.70;;;14.70;99.90;;;;;;4959122;28;20259;-54
2022/03/10 10:26:12;;;;;;;24.50;15.13;;;15.00;99.90;;;;;;4958443;28;20651;-54
2022/03/10 10:28:46;;;;;;;23.93;15.90;;;15.00;99.90;;;;;;4959811;28;20206;-54
2022/03/10 10:31:19;;;;;;;26.23;15.20;;;15.10;99.90;;;;;;4961882;28;20214;-54
2022/03/10 10:34:09;;;;;;;24.60;16.07;;;14.90;99.90;;;;;;4960843;28;20247;-54
2022/03/10 10:36:37;;;;;;;23.07;15.37;;;15.00;99.90;;;;;;4960261;28;20200;-54
2022/03/10 10:39:13;;;;;;;23.77;15.20;;;15.30;99.90;;;;;;4961342;28;20263;-55
2022/03/10 10:41:41;;;;;;;22.77;15.83;;;15.30;99.90;;;;;;4972897;28;20212;-54
2022/03/10 10:44:17;;;;;;;24.13;14.47;;;14.90;99.90;;;;;;4960748;28;20215;-54
2022/03/10 10:46:49;;;;;;;22.33;15.80;;;14.70;99.90;;;;;;4959202;28;20251;-54
2022/03/10 10:49:18;;;;;;;25.73;15.97;;;15.10;99.90;;;;;;4958291;28;20551;-53
2022/03/10 10:52:03;;;;;;;22.37;14.57;;;14.90;99.90;;;;;;4956645;28;20467;-55
2022/03/10 10:54:31;;;;;;;24.33;15.40;;;15.00;99.90;;;;;;4959336;28;20300;-54
2022/03/10 10:57:05;;;;;;;21.50;14.50;;;15.10;99.90;;;;;;4964616;28;20552;-53
2022/03/10 10:59:36;;;;;;;24.33;15.50;;;14.70;99.90;;;;;;4954227;28;20671;-53
2022/03/10 11:02:11;;;;;;;25.47;14.47;;;14.80;99.90;;;;;;4949138;28;20236;-55
2022/03/10 11:04:40;;;;;;;25.20;15.70;;;15.30;99.90;;;;;;4954040;28;20207;-55
2022/03/10 11:07:11;;;;;;;25.83;15.73;;;15.60;99.90;;;;;;4951177;28;20233;-57
2022/03/10 11:09:40;;;;;;;20.90;14.00;;;15.60;99.90;;;;;;4954960;28;20671;-55
2022/03/10 11:12:09;;;;;;;23.27;15.23;;;15.60;99.90;;;;;;4959349;28;20226;-54
2022/03/10 11:14:37;;;;;;;21.70;13.87;;;15.70;99.90;;;;;;4948151;28;20255;-53
2022/03/10 11:17:04;;;;;;;20.43;13.70;;;15.60;99.90;;;;;;4954138;28;20202;-55
2022/03/10 11:19:33;;;;;;;20.47;14.30;;;15.50;99.90;;;;;;4950817;28;20215;-54
2022/03/10 11:22:20;;;;;;;20.10;13.40;;;15.60;99.90;;;;;;4952215;28;20216;-55
2022/03/10 11:25:13;;;;;;;23.57;14.50;;;15.60;99.90;;;;;;4960267;28;20242;-53
2022/03/10 11:27:51;;;;;;;18.87;12.73;;;15.90;99.90;;;;;;4956930;28;20637;-55
2022/03/10 11:30:23;;;;;;;23.50;13.80;;;15.60;99.90;;;;;;4959517;28;20196;-54
2022/03/10 11:33:19;;;;;;;20.60;13.37;;;15.50;99.90;;;;;;4956350;28;20741;-60
2022/03/10 11:35:48;;;;;;;18.30;12.20;;;16.30;99.90;;;;;;4952004;28;20282;-54
2022/03/10 11:38:17;;;;;;;23.53;14.57;;;16.20;99.90;;;;;;4956439;28;20251;-54
2022/03/10 11:40:50;;;;;;;21.10;13.50;;;16.10;99.90;;;;;;4955002;28;20223;-57
2022/03/10 11:43:20;;;;;;;22.80;15.07;;;16.20;99.90;;;;;;4955908;28;20210;-53
2022/03/10 11:45:47;;;;;;;18.70;12.57;;;16.30;99.90;;;;;;4957627;28;20715;-53
2022/03/10 11:48:23;;;;;;;20.30;13.10;;;16.20;99.90;;;;;;4953644;28;20298;-54
2022/03/10 11:50:51;;;;;;;21.57;13.37;;;16.50;99.90;;;;;;4953394;28;20215;-54
2022/03/10 11:53:18;;;;;;;21.00;13.30;;;16.30;99.90;;;;;;4956933;28;20315;-54
2022/03/10 11:55:51;;;;;;;17.37;13.10;;;16.50;99.90;;;;;;4951606;28;20210;-53
2022/03/10 11:58:36;;;;;;;21.73;13.07;;;17.00;99.90;;;;;;4957266;28;20301;-54
2022/03/10 12:01:03;;;;;;;22.10;12.87;;;16.90;99.90;;;;;;4953170;28;20303;-54
2022/03/10 12:03:37;;;;;;;17.60;12.63;;;17.10;99.90;;;;;;4954550;28;20718;-54
2022/03/10 12:06:08;;;;;;;20.63;13.03;;;17.10;99.90;;;;;;4951462;28;20363;-54
2022/03/10 12:08:36;;;;;;;18.57;13.13;;;17.50;99.90;;;;;;4955451;28;20202;-54
2022/03/10 12:11:13;;;;;;;20.80;14.03;;;17.60;99.90;;;;;;4953440;28;20218;-54
2022/03/10 12:13:44;;;;;;;20.97;14.00;;;17.50;99.90;;;;;;4954829;28;20309;-54
2022/03/10 12:16:26;;;;;;;21.53;13.73;;;17.50;99.90;;;;;;4955457;28;20654;-54
2022/03/10 12:18:54;;;;;;;19.57;13.43;;;18.10;99.90;;;;;;4954551;28;21016;-54
2022/03/10 12:21:22;;;;;;;25.30;13.80;;;17.80;99.90;;;;;;4952633;28;20252;-54
2022/03/10 12:23:57;;;;;;;21.50;14.43;;;17.80;99.90;;;;;;4959155;28;20698;-54
2022/03/10 12:26:33;;;;;;;21.67;14.73;;;18.10;99.90;;;;;;4956168;28;20297;-54
2022/03/10 12:29:05;;;;;;;24.70;15.00;;;18.20;99.90;;;;;;4953454;28;20217;-53
2022/03/10 12:31:35;;;;;;;21.73;14.47;;;18.30;99.90;;;;;;4955437;28;20238;-54
2022/03/10 12:34:09;;;;;;;21.47;14.53;;;18.50;99.90;;;;;;4958765;28;20325;-53
2022/03/10 12:36:43;;;;;;;17.80;12.83;;;18.80;99.90;;;;;;4956310;28;20241;-54
2022/03/10 12:39:16;;;;;;;15.40;11.73;;;18.50;99.90;;;;;;4957017;28;20581;-53
2022/03/10 12:41:50;;;;;;;20.07;12.53;;;18.20;99.90;;;;;;4954858;28;20724;-53
2022/03/10 12:44:19;;;;;;;18.63;12.20;;;18.40;99.90;;;;;;4959511;28;20194;-55
2022/03/10 12:46:46;;;;;;;17.43;12.60;;;18.70;99.90;;;;;;4953478;28;20315;-53